Time;durP1;ratioP1;P1;durP2;ratioP2;P2;SDS_P1;SDS_P2;PMS_P1;PMS_P2;Temp;Humidity;BMP_temperature;BMP_pressure;BME280_temperature;BME280_humidity;BME280_pressure;Samples;Min_cycle;Max_cycle;Signal;HPM_P1;HPM_P2
2022/07/27 00:02:19;;;;;;;16.80;9.90;;;;;;;;;;4993506;28;20026;-57
2022/07/27 00:04:45;;;;;;;16.27;10.07;;;;;;;;;;4993476;28;20022;-60
2022/07/27 00:07:12;;;;;;;17.50;10.25;;;;;;;;;;4991680;28;20398;-60
2022/07/27 00:09:37;;;;;;;20.85;10.77;;;;;;;;;;4993231;28;20026;-57
2022/07/27 00:12:06;;;;;;;18.75;10.00;;;;;;;;;;4993356;28;20482;-60
2022/07/27 00:14:32;;;;;;;15.10;9.82;;;;;;;;;;4993331;28;20398;-60
2022/07/27 00:16:58;;;;;;;16.00;10.40;;;;;;;;;;4993099;28;20032;-61
2022/07/27 00:19:24;;;;;;;16.98;10.07;;;;;;;;;;4993066;28;20049;-60
2022/07/27 00:21:50;;;;;;;18.25;10.38;;;;;;;;;;4993178;28;20101;-61
2022/07/27 00:24:16;;;;;;;15.45;9.75;;;;;;;;;;4993159;28;20382;-60
2022/07/27 00:26:42;;;;;;;15.55;10.00;;;;;;;;;;4992833;28;20455;-60
2022/07/27 00:29:08;;;;;;;17.02;10.43;;;;;;;;;;4992690;28;20027;-59
2022/07/27 00:31:34;;;;;;;15.85;10.38;;;;;;;;;;4993103;28;20065;-60
2022/07/27 00:34:00;;;;;;;17.42;10.60;;;;;;;;;;4991786;28;20069;-60
2022/07/27 00:36:26;;;;;;;15.15;10.30;;;;;;;;;;4992843;28;20029;-59
2022/07/27 00:38:52;;;;;;;17.35;10.20;;;;;;;;;;4992876;28;20432;-61
2022/07/27 00:41:18;;;;;;;15.00;9.90;;;;;;;;;;4992891;28;20060;-59
2022/07/27 00:43:53;;;;;;;17.55;10.25;;;;;;;;;;4993016;28;20026;-60
2022/07/27 00:46:19;;;;;;;15.90;10.55;;;;;;;;;;4992629;28;20023;-61
2022/07/27 00:48:45;;;;;;;15.98;10.23;;;;;;;;;;4992395;28;20065;-58
2022/07/27 00:51:12;;;;;;;18.67;10.43;;;;;;;;;;4992571;28;20023;-59
2022/07/27 00:53:38;;;;;;;17.88;10.70;;;;;;;;;;4992551;28;20041;-60
2022/07/27 00:56:04;;;;;;;14.75;10.15;;;;;;;;;;4991295;28;20030;-61
2022/07/27 00:58:30;;;;;;;16.17;10.10;;;;;;;;;;4992619;28;20084;-57
2022/07/27 01:00:56;;;;;;;17.95;10.38;;;;;;;;;;4992203;28;20026;-60
2022/07/27 01:03:22;;;;;;;18.10;10.65;;;;;;;;;;4992658;28;20061;-59
2022/07/27 01:05:48;;;;;;;21.63;10.90;;;;;;;;;;4993018;28;20101;-60
2022/07/27 01:08:14;;;;;;;16.10;10.48;;;;;;;;;;4992504;28;20367;-58
2022/07/27 01:10:41;;;;;;;16.70;10.65;;;;;;;;;;4992775;28;20467;-60
2022/07/27 01:13:07;;;;;;;17.88;10.80;;;;;;;;;;4992536;28;20030;-59
2022/07/27 01:15:33;;;;;;;16.63;10.38;;;;;;;;;;4991245;28;20022;-55
2022/07/27 01:17:59;;;;;;;17.58;10.35;;;;;;;;;;4992294;28;20420;-59
2022/07/27 01:20:25;;;;;;;16.00;10.80;;;;;;;;;;4992493;28;20092;-59
2022/07/27 01:22:51;;;;;;;16.80;10.80;;;;;;;;;;4992608;28;20030;-60
2022/07/27 01:25:17;;;;;;;14.90;10.48;;;;;;;;;;4992243;28;20030;-60
2022/07/27 01:27:43;;;;;;;15.98;10.80;;;;;;;;;;4992017;28;20034;-59
2022/07/27 01:30:25;;;;;;;17.08;10.85;;;;;;;;;;4992210;28;20029;-60
2022/07/27 01:32:52;;;;;;;17.85;11.20;;;;;;;;;;4992108;28;20027;-60
2022/07/27 01:35:18;;;;;;;16.02;10.68;;;;;;;;;;4992152;28;20034;-59
2022/07/27 01:37:43;;;;;;;17.25;10.98;;;;;;;;;;4990859;28;20510;-60
2022/07/27 01:40:10;;;;;;;18.73;11.60;;;;;;;;;;4992216;28;20033;-60
2022/07/27 01:42:36;;;;;;;19.15;11.57;;;;;;;;;;4992476;28;20023;-58
2022/07/27 01:45:02;;;;;;;16.85;11.48;;;;;;;;;;4991260;28;20491;-60
2022/07/27 01:47:28;;;;;;;19.02;11.30;;;;;;;;;;4992088;28;20045;-59
2022/07/27 01:49:54;;;;;;;16.65;11.05;;;;;;;;;;4992469;28;20019;-61
2022/07/27 01:52:20;;;;;;;18.98;11.40;;;;;;;;;;4992600;28;20081;-56
2022/07/27 01:54:46;;;;;;;16.80;11.18;;;;;;;;;;4992545;28;20022;-60
2022/07/27 01:57:12;;;;;;;16.90;11.23;;;;;;;;;;4993019;28;20379;-58
2022/07/27 01:59:37;;;;;;;15.25;10.75;;;;;;;;;;4992136;28;20027;-58
2022/07/27 02:02:04;;;;;;;17.52;11.73;;;;;;;;;;4991965;28;20030;-59
2022/07/27 02:04:29;;;;;;;17.45;11.18;;;;;;;;;;4990895;28;20034;-60
2022/07/27 02:06:55;;;;;;;17.00;11.02;;;;;;;;;;4991820;28;20490;-58
2022/07/27 02:09:24;;;;;;;18.73;10.85;;;;;;;;;;4991825;28;20049;-60
2022/07/27 02:14:35;;;;;;;17.95;11.10;;;;;;;;;;4995361;28;20476;-59
2022/07/27 02:17:01;;;;;;;16.08;11.02;;;;;;;;;;4995360;28;20069;-59
2022/07/27 02:19:27;;;;;;;16.38;11.02;;;;;;;;;;4995179;28;20033;-56
2022/07/27 02:21:53;;;;;;;18.40;11.38;;;;;;;;;;4995489;28;20026;-57
2022/07/27 02:24:19;;;;;;;19.35;11.70;;;;;;;;;;4995374;28;20399;-60
2022/07/27 02:26:46;;;;;;;17.05;12.18;;;;;;;;;;4995140;28;20053;-60
2022/07/27 02:29:12;;;;;;;18.65;12.13;;;;;;;;;;4994998;28;20030;-61
2022/07/27 02:31:38;;;;;;;20.15;12.05;;;;;;;;;;4995092;28;20402;-60
2022/07/27 02:34:04;;;;;;;17.52;11.98;;;;;;;;;;4995336;28;20022;-60
2022/07/27 02:36:30;;;;;;;19.42;12.00;;;;;;;;;;4995109;28;20505;-59
2022/07/27 02:38:56;;;;;;;18.25;12.57;;;;;;;;;;4994809;28;20062;-60
2022/07/27 02:41:22;;;;;;;18.38;11.90;;;;;;;;;;4994888;28;20022;-60
2022/07/27 02:43:48;;;;;;;18.10;11.98;;;;;;;;;;4994329;28;20089;-59
2022/07/27 02:46:14;;;;;;;19.35;12.60;;;;;;;;;;4994853;28;20384;-61
2022/07/27 02:48:40;;;;;;;18.83;12.40;;;;;;;;;;4994160;28;20033;-59
2022/07/27 02:51:06;;;;;;;17.20;12.77;;;;;;;;;;4993552;28;20149;-60
2022/07/27 02:53:32;;;;;;;17.17;12.35;;;;;;;;;;4994802;28;20022;-60
2022/07/27 02:55:58;;;;;;;17.05;12.82;;;;;;;;;;4994511;28;20553;-59
2022/07/27 02:58:24;;;;;;;20.70;12.57;;;;;;;;;;4994436;28;20034;-59
2022/07/27 03:00:50;;;;;;;17.83;11.77;;;;;;;;;;4994569;28;20026;-60
2022/07/27 03:03:16;;;;;;;18.13;11.52;;;;;;;;;;4994768;28;20030;-56
2022/07/27 03:05:42;;;;;;;17.60;12.15;;;;;;;;;;4994475;28;20409;-58
2022/07/27 03:08:08;;;;;;;16.77;11.85;;;;;;;;;;4994267;28;20447;-60
2022/07/27 03:10:35;;;;;;;18.80;12.43;;;;;;;;;;4994486;28;20061;-60
2022/07/27 03:13:01;;;;;;;17.52;12.60;;;;;;;;;;4994347;28;20053;-60
2022/07/27 03:15:28;;;;;;;18.75;12.40;;;;;;;;;;4994284;28;20026;-60
2022/07/27 03:17:54;;;;;;;20.20;12.02;;;;;;;;;;4994006;28;20022;-56
2022/07/27 03:20:20;;;;;;;17.65;12.00;;;;;;;;;;4994399;28;20027;-59
2022/07/27 03:22:46;;;;;;;16.35;12.15;;;;;;;;;;4993985;28;20084;-60
2022/07/27 03:25:12;;;;;;;18.45;12.20;;;;;;;;;;4993737;28;20113;-60
2022/07/27 03:27:38;;;;;;;17.20;12.48;;;;;;;;;;4993687;28;20027;-58
2022/07/27 03:30:05;;;;;;;20.20;12.95;;;;;;;;;;4994269;28;20022;-60
2022/07/27 03:32:31;;;;;;;16.90;12.30;;;;;;;;;;4994019;28;20026;-57
2022/07/27 03:34:57;;;;;;;20.05;12.35;;;;;;;;;;4993972;28;20227;-59
2022/07/27 03:37:23;;;;;;;18.55;12.93;;;;;;;;;;4993546;28;20029;-59
2022/07/27 03:39:49;;;;;;;17.70;13.25;;;;;;;;;;4993869;28;20471;-60
2022/07/27 03:42:15;;;;;;;17.38;12.25;;;;;;;;;;4993872;28;20026;-57
2022/07/27 03:44:42;;;;;;;19.75;12.52;;;;;;;;;;4993829;28;20022;-59
2022/07/27 03:47:08;;;;;;;18.45;12.57;;;;;;;;;;4993384;28;20126;-56
2022/07/27 03:49:34;;;;;;;20.58;13.10;;;;;;;;;;4993560;28;20510;-60
2022/07/27 03:52:00;;;;;;;18.38;13.30;;;;;;;;;;4993761;28;20046;-59
2022/07/27 03:54:26;;;;;;;18.02;12.38;;;;;;;;;;4993530;28;20550;-60
2022/07/27 03:56:52;;;;;;;19.02;12.40;;;;;;;;;;4993288;28;20035;-59
2022/07/27 03:59:18;;;;;;;19.10;13.43;;;;;;;;;;4993787;28;20073;-60
2022/07/27 04:01:44;;;;;;;17.23;12.50;;;;;;;;;;4993545;28;20046;-59
2022/07/27 04:04:11;;;;;;;18.15;13.00;;;;;;;;;;4993636;28;20027;-59
2022/07/27 04:06:36;;;;;;;19.65;13.27;;;;;;;;;;4993368;28;20026;-59
2022/07/27 04:09:03;;;;;;;19.27;13.52;;;;;;;;;;4991607;28;20394;-58
2022/07/27 04:11:28;;;;;;;18.52;13.20;;;;;;;;;;4993067;28;20368;-59
2022/07/27 04:13:54;;;;;;;17.52;12.95;;;;;;;;;;4992036;28;20069;-58
2022/07/27 04:16:21;;;;;;;19.55;13.65;;;;;;;;;;4997726;28;20453;-60
2022/07/27 04:18:47;;;;;;;19.67;13.95;;;;;;;;;;4994825;28;20030;-60
2022/07/27 04:21:14;;;;;;;20.70;13.18;;;;;;;;;;5004854;28;20042;-56
2022/07/27 04:23:41;;;;;;;17.77;12.95;;;;;;;;;;5012750;28;20054;-60
2022/07/27 04:26:07;;;;;;;17.88;13.40;;;;;;;;;;4995480;28;20096;-60
2022/07/27 04:28:33;;;;;;;20.38;13.32;;;;;;;;;;4992720;28;20026;-60
2022/07/27 04:30:59;;;;;;;17.80;14.10;;;;;;;;;;4992922;28;20026;-59
2022/07/27 04:33:25;;;;;;;17.58;13.05;;;;;;;;;;4999643;28;20045;-60
2022/07/27 04:35:51;;;;;;;18.60;13.20;;;;;;;;;;5011758;28;20096;-60
2022/07/27 04:38:17;;;;;;;17.95;13.60;;;;;;;;;;5012278;28;20446;-54
2022/07/27 04:40:42;;;;;;;17.60;12.80;;;;;;;;;;5012347;28;20068;-54
2022/07/27 04:43:08;;;;;;;18.25;13.38;;;;;;;;;;5011226;28;20099;-58
2022/07/27 04:45:34;;;;;;;21.70;14.68;;;;;;;;;;5012509;28;20026;-56
2022/07/27 04:48:04;;;;;;;19.70;14.23;;;;;;;;;;5012074;28;20370;-55
2022/07/27 04:50:30;;;;;;;19.38;13.90;;;;;;;;;;5004988;28;20022;-58
2022/07/27 04:52:56;;;;;;;17.20;13.02;;;;;;;;;;4993070;28;20026;-58
2022/07/27 04:55:22;;;;;;;17.95;12.45;;;;;;;;;;4992578;28;20030;-58
2022/07/27 04:57:49;;;;;;;20.20;13.88;;;;;;;;;;4992463;28;20041;-59
2022/07/27 05:00:15;;;;;;;19.95;14.05;;;;;;;;;;4992349;28;20043;-60
2022/07/27 05:02:41;;;;;;;20.45;13.52;;;;;;;;;;4992345;28;20061;-58
2022/07/27 05:05:08;;;;;;;20.15;13.52;;;;;;;;;;4992329;28;20072;-58
2022/07/27 05:07:34;;;;;;;19.40;13.73;;;;;;;;;;4990739;28;20614;-60
2022/07/27 05:10:00;;;;;;;19.58;14.65;;;;;;;;;;4991043;28;20038;-60
2022/07/27 05:12:26;;;;;;;22.42;14.85;;;;;;;;;;4992327;28;20034;-60
2022/07/27 05:14:52;;;;;;;19.48;14.18;;;;;;;;;;4992420;28;20018;-57
2022/07/27 05:17:18;;;;;;;18.90;14.32;;;;;;;;;;4990728;28;20022;-60
2022/07/27 05:19:44;;;;;;;18.00;13.77;;;;;;;;;;4992184;28;20030;-60
2022/07/27 05:22:10;;;;;;;22.00;14.55;;;;;;;;;;4992212;28;20033;-58
2022/07/27 05:24:36;;;;;;;17.50;14.10;;;;;;;;;;4992378;28;20384;-60
2022/07/27 05:27:02;;;;;;;17.63;13.30;;;;;;;;;;4991979;28;20100;-60
2022/07/27 05:29:28;;;;;;;17.52;12.98;;;;;;;;;;4991889;28;20491;-61
2022/07/27 05:31:54;;;;;;;19.00;12.68;;;;;;;;;;4992108;28;20122;-60
2022/07/27 05:34:20;;;;;;;17.30;13.23;;;;;;;;;;4990610;28;20058;-59
2022/07/27 05:36:46;;;;;;;20.33;13.52;;;;;;;;;;4991753;28;20062;-61
2022/07/27 05:39:12;;;;;;;18.38;13.23;;;;;;;;;;4991794;28;20622;-61
2022/07/27 05:41:38;;;;;;;20.00;12.60;;;;;;;;;;4991942;28;20058;-63
2022/07/27 05:44:04;;;;;;;19.88;13.02;;;;;;;;;;4990776;28;20028;-62
2022/07/27 05:46:32;;;;;;;19.52;13.00;;;;;;;;;;4992993;28;20061;-59
2022/07/27 05:48:58;;;;;;;20.07;12.90;;;;;;;;;;4995326;28;20031;-60
2022/07/27 05:51:24;;;;;;;18.63;12.63;;;;;;;;;;5005478;28;20269;-61
2022/07/27 05:53:50;;;;;;;18.40;12.85;;;;;;;;;;5014368;28;20026;-61
2022/07/27 05:56:16;;;;;;;20.13;12.98;;;;;;;;;;5015233;28;20486;-61
2022/07/27 05:58:42;;;;;;;17.15;12.77;;;;;;;;;;5014944;28;20022;-61
2022/07/27 06:01:08;;;;;;;18.80;12.18;;;;;;;;;;5014900;28;20397;-62
2022/07/27 06:03:36;;;;;;;17.65;12.50;;;;;;;;;;5015033;28;20029;-62
2022/07/27 06:08:47;;;;;;;18.30;12.50;;;;;;;;;;5014654;28;20116;-61
2022/07/27 06:11:13;;;;;;;21.63;12.90;;;;;;;;;;5014689;28;20386;-61
2022/07/27 06:13:39;;;;;;;19.77;12.43;;;;;;;;;;5014810;28;20053;-62
2022/07/27 06:16:05;;;;;;;17.95;12.45;;;;;;;;;;5014514;28;20022;-62
2022/07/27 06:18:31;;;;;;;17.92;12.75;;;;;;;;;;5014290;28;20026;-62
2022/07/27 06:21:00;;;;;;;19.92;12.93;;;;;;;;;;5014753;28;20034;-61
2022/07/27 06:23:26;;;;;;;19.75;11.90;;;;;;;;;;5013491;28;20084;-59
2022/07/27 06:25:52;;;;;;;17.50;11.98;;;;;;;;;;5014827;28;20445;-62
2022/07/27 06:28:18;;;;;;;17.02;11.65;;;;;;;;;;5014531;28;20030;-60
2022/07/27 06:30:45;;;;;;;17.75;11.85;;;;;;;;;;5014611;28;20079;-62
2022/07/27 06:33:12;;;;;;;17.00;12.10;;;;;;;;;;5014625;28;20032;-62
2022/07/27 06:35:38;;;;;;;18.48;12.80;;;;;;;;;;5014513;28;20029;-62
2022/07/27 06:38:04;;;;;;;19.17;12.15;;;;;;;;;;5014210;28;20026;-60
2022/07/27 06:40:31;;;;;;;20.30;11.95;;;;;;;;;;5013297;28;20026;-62
2022/07/27 06:42:57;;;;;;;16.60;11.70;;;;;;;;;;5014172;28;20045;-61
2022/07/27 06:45:23;;;;;;;19.60;11.63;;;;;;;;;;5013826;28;20092;-58
2022/07/27 06:47:50;;;;;;;16.88;11.65;;;;;;;;;;5013958;28;20068;-61
2022/07/27 06:50:17;;;;;;;17.30;12.05;;;;;;;;;;5014065;28;20401;-62
2022/07/27 06:52:43;;;;;;;17.73;12.02;;;;;;;;;;5014026;28;20026;-61
2022/07/27 06:55:09;;;;;;;18.10;11.60;;;;;;;;;;5012821;28;20041;-61
2022/07/27 06:57:35;;;;;;;18.15;12.48;;;;;;;;;;5013602;28;20041;-61
2022/07/27 07:00:01;;;;;;;17.77;12.00;;;;;;;;;;5013708;28;20068;-61
2022/07/27 07:02:27;;;;;;;17.02;11.50;;;;;;;;;;5013950;28;20030;-61
2022/07/27 07:04:53;;;;;;;18.23;11.40;;;;;;;;;;5014172;28;20026;-61
2022/07/27 07:07:19;;;;;;;16.27;11.43;;;;;;;;;;5013614;28;20608;-61
2022/07/27 07:09:45;;;;;;;17.10;11.82;;;;;;;;;;5012450;28;20018;-57
2022/07/27 07:12:11;;;;;;;17.77;11.30;;;;;;;;;;5013870;28;20025;-60
2022/07/27 07:14:37;;;;;;;17.08;11.77;;;;;;;;;;5012476;28;20022;-60
2022/07/27 07:17:03;;;;;;;18.30;11.88;;;;;;;;;;5012099;28;20022;-61
2022/07/27 07:19:29;;;;;;;16.48;11.30;;;;;;;;;;5013515;28;20029;-60
2022/07/27 07:21:55;;;;;;;17.27;12.00;;;;;;;;;;5013852;28;20022;-61
2022/07/27 07:24:21;;;;;;;17.20;11.35;;;;;;;;;;5013692;28;20049;-61
2022/07/27 07:26:47;;;;;;;18.45;11.80;;;;;;;;;;5013317;28;20486;-61
2022/07/27 07:29:14;;;;;;;18.85;11.52;;;;;;;;;;5013286;28;20118;-60
2022/07/27 07:31:40;;;;;;;17.60;11.32;;;;;;;;;;5011999;28;20045;-61
2022/07/27 07:34:06;;;;;;;17.55;11.43;;;;;;;;;;5012343;28;20049;-61
2022/07/27 07:36:32;;;;;;;17.15;12.10;;;;;;;;;;5013323;28;20041;-61
2022/07/27 07:38:58;;;;;;;20.33;12.20;;;;;;;;;;5013139;28;20029;-61
2022/07/27 07:41:24;;;;;;;18.73;11.80;;;;;;;;;;5012990;28;20026;-61
2022/07/27 07:43:50;;;;;;;18.73;11.70;;;;;;;;;;5013171;28;20029;-55
2022/07/27 07:46:17;;;;;;;18.42;12.02;;;;;;;;;;5011811;28;20092;-59
2022/07/27 07:48:43;;;;;;;17.70;12.30;;;;;;;;;;5011456;28;20080;-59
2022/07/27 07:51:09;;;;;;;21.42;13.10;;;;;;;;;;5013013;28;20028;-61
2022/07/27 07:53:36;;;;;;;16.30;11.32;;;;;;;;;;5011797;28;20046;-60
2022/07/27 07:56:02;;;;;;;19.50;12.32;;;;;;;;;;5012849;28;20029;-61
2022/07/27 07:58:30;;;;;;;19.55;12.35;;;;;;;;;;5011488;28;20041;-59
2022/07/27 08:00:56;;;;;;;19.92;13.35;;;;;;;;;;5013137;28;20034;-61
2022/07/27 08:03:22;;;;;;;19.98;12.95;;;;;;;;;;5011733;28;20072;-62
2022/07/27 08:05:48;;;;;;;17.20;12.35;;;;;;;;;;5013028;28;20026;-61
2022/07/27 08:08:14;;;;;;;16.55;12.10;;;;;;;;;;5012510;28;20068;-62
2022/07/27 08:10:40;;;;;;;18.73;12.45;;;;;;;;;;5012887;28;20054;-62
2022/07/27 08:13:07;;;;;;;20.02;12.50;;;;;;;;;;5013520;28;20026;-56
2022/07/27 08:15:33;;;;;;;18.50;13.00;;;;;;;;;;5013911;28;20367;-59
2022/07/27 08:17:59;;;;;;;16.98;12.80;;;;;;;;;;5012666;28;20474;-60
2022/07/27 08:20:27;;;;;;;19.35;13.02;;;;;;;;;;5012752;28;20028;-60
2022/07/27 08:22:53;;;;;;;19.92;13.80;;;;;;;;;;5014620;28;20500;-59
2022/07/27 08:25:19;;;;;;;17.88;13.20;;;;;;;;;;5014109;28;20112;-59
2022/07/27 08:27:45;;;;;;;23.20;13.40;;;;;;;;;;5014860;28;20041;-60
2022/07/27 08:30:12;;;;;;;16.63;12.77;;;;;;;;;;5013171;28;20030;-61
2022/07/27 08:32:57;;;;;;;17.63;12.55;;;;;;;;;;5014507;28;20030;-61
2022/07/27 08:35:23;;;;;;;18.92;12.82;;;;;;;;;;5014137;28;20022;-60
2022/07/27 08:37:49;;;;;;;18.58;13.38;;;;;;;;;;5014472;28;20026;-61
2022/07/27 08:40:16;;;;;;;18.85;13.00;;;;;;;;;;5014889;28;20053;-61
2022/07/27 08:42:45;;;;;;;16.10;12.75;;;;;;;;;;5014433;28;20029;-60
2022/07/27 08:45:12;;;;;;;19.40;13.57;;;;;;;;;;5014723;28;20034;-60
2022/07/27 08:47:39;;;;;;;19.10;13.20;;;;;;;;;;5014815;28;20108;-61
2022/07/27 08:50:21;;;;;;;21.45;13.52;;;;;;;;;;5015475;28;20097;-61
2022/07/27 08:52:48;;;;;;;16.52;12.70;;;;;;;;;;5015703;28;20113;-59
2022/07/27 08:55:14;;;;;;;16.88;12.60;;;;;;;;;;5016890;28;20022;-61
2022/07/27 08:57:40;;;;;;;17.15;12.45;;;;;;;;;;5016568;28;20029;-61
2022/07/27 09:00:06;;;;;;;18.23;12.65;;;;;;;;;;5017771;28;20061;-59
2022/07/27 09:02:33;;;;;;;20.52;12.70;;;;;;;;;;5016179;28;20030;-62
2022/07/27 09:04:59;;;;;;;16.58;12.18;;;;;;;;;;5017210;28;20041;-61
2022/07/27 09:07:30;;;;;;;16.17;12.35;;;;;;;;;;5017442;28;20454;-62
2022/07/27 09:09:56;;;;;;;15.95;12.02;;;;;;;;;;5018727;28;20033;-60
2022/07/27 09:12:29;;;;;;;18.65;12.70;;;;;;;;;;5019347;28;20048;-62
2022/07/27 09:15:04;;;;;;;17.55;12.88;;;;;;;;;;5018259;28;20040;-63
2022/07/27 09:17:30;;;;;;;18.65;12.43;;;;;;;;;;5018819;28;20639;-61
2022/07/27 09:19:58;;;;;;;16.70;12.20;;;;;;;;;;5018532;28;20029;-62
2022/07/27 09:22:42;;;;;;;18.80;12.95;;;;;;;;;;5019746;28;20038;-61
2022/07/27 09:25:09;;;;;;;19.33;12.52;;;;;;;;;;5015759;28;20041;-61
2022/07/27 09:27:36;;;;;;;18.83;12.27;;;;;;;;;;5018321;28;20033;-62
2022/07/27 09:30:03;;;;;;;19.13;12.10;;;;;;;;;;5018628;28;20025;-62
2022/07/27 09:32:30;;;;;;;17.35;12.35;;;;;;;;;;5020950;28;20371;-62
2022/07/27 09:34:56;;;;;;;15.88;12.30;;;;;;;;;;5020556;28;20077;-63
2022/07/27 09:37:26;;;;;;;18.25;12.20;;;;;;;;;;5021970;28;20026;-60
2022/07/27 09:40:11;;;;;;;16.05;11.90;;;;;;;;;;5022253;28;20028;-62
2022/07/27 09:42:37;;;;;;;17.27;12.50;;;;;;;;;;5023159;28;20040;-63
2022/07/27 09:45:03;;;;;;;17.80;13.00;;;;;;;;;;5007140;28;20398;-62
2022/07/27 09:47:30;;;;;;;16.95;12.13;;;;;;;;;;4999608;28;20066;-62
2022/07/27 09:49:57;;;;;;;16.02;12.63;;;;;;;;;;5001637;28;20026;-62
2022/07/27 09:52:28;;;;;;;16.45;12.55;;;;;;;;;;5001383;28;20093;-63
2022/07/27 09:54:54;;;;;;;17.42;12.68;;;;;;;;;;5002111;28;20029;-63
2022/07/27 09:57:20;;;;;;;18.45;12.55;;;;;;;;;;5001820;28;20035;-61
2022/07/27 09:59:46;;;;;;;23.08;12.95;;;;;;;;;;5002124;28;20076;-63
2022/07/27 10:02:13;;;;;;;15.35;11.95;;;;;;;;;;5003237;28;20080;-62
2022/07/27 10:04:39;;;;;;;16.65;11.90;;;;;;;;;;5001751;28;20026;-62
2022/07/27 10:07:06;;;;;;;18.77;13.15;;;;;;;;;;5001206;28;20030;-63
2022/07/27 10:09:33;;;;;;;20.63;12.98;;;;;;;;;;5003704;28;20141;-63
2022/07/27 10:12:00;;;;;;;16.23;12.20;;;;;;;;;;5003637;28;20372;-63
2022/07/27 10:14:26;;;;;;;17.45;12.32;;;;;;;;;;5003194;28;20429;-62
2022/07/27 10:16:53;;;;;;;18.60;12.25;;;;;;;;;;5001495;28;20498;-61
2022/07/27 10:19:45;;;;;;;17.92;12.70;;;;;;;;;;5003166;28;20390;-63
2022/07/27 10:22:12;;;;;;;18.90;12.75;;;;;;;;;;5003361;28;20038;-62
2022/07/27 10:24:38;;;;;;;17.88;13.30;;;;;;;;;;5002380;28;20394;-62
2022/07/27 10:27:23;;;;;;;17.00;12.57;;;;;;;;;;5002880;28;20053;-61
2022/07/27 10:29:50;;;;;;;17.65;12.90;;;;;;;;;;5002318;28;20045;-62
2022/07/27 10:32:32;;;;;;;16.40;12.27;;;;;;;;;;5000646;28;20019;-61
2022/07/27 10:34:58;;;;;;;17.35;13.07;;;;;;;;;;4997408;28;20037;-62
2022/07/27 10:37:26;;;;;;;16.17;12.88;;;;;;;;;;4997371;28;20376;-60
2022/07/27 10:42:41;;;;;;;16.42;14.20;;;;;;;;;;4996131;28;20112;-60
2022/07/27 10:45:09;;;;;;;18.00;14.43;;;;;;;;;;4997431;28;20034;-57
2022/07/27 10:47:39;;;;;;;18.23;13.88;;;;;;;;;;5001902;28;20095;-61
2022/07/27 10:50:11;;;;;;;19.20;13.73;;;;;;;;;;5003693;28;20023;-62
2022/07/27 10:52:48;;;;;;;16.98;13.65;;;;;;;;;;5002940;28;20026;-62
2022/07/27 10:55:30;;;;;;;17.17;13.57;;;;;;;;;;5001048;28;20030;-63
2022/07/27 10:57:56;;;;;;;17.00;13.77;;;;;;;;;;4994511;28;20030;-63
2022/07/27 11:00:42;;;;;;;21.35;14.50;;;;;;;;;;4994350;28;20027;-57
2022/07/27 11:03:09;;;;;;;20.58;13.85;;;;;;;;;;4994196;28;20026;-64
2022/07/27 11:05:35;;;;;;;17.38;13.73;;;;;;;;;;4993745;28;20030;-65
2022/07/27 11:08:01;;;;;;;17.13;13.45;;;;;;;;;;4993975;28;20046;-63
2022/07/27 11:10:28;;;;;;;18.88;13.75;;;;;;;;;;4994472;28;20022;-63
2022/07/27 11:12:54;;;;;;;18.08;13.82;;;;;;;;;;4994567;28;20352;-67
2022/07/27 11:15:20;;;;;;;18.77;13.60;;;;;;;;;;4994075;28;20049;-67
2022/07/27 11:17:49;;;;;;;16.55;13.30;;;;;;;;;;4993708;28;20509;-68
2022/07/27 11:20:15;;;;;;;17.25;13.10;;;;;;;;;;4993929;28;20026;-66
2022/07/27 11:22:41;;;;;;;16.10;13.23;;;;;;;;;;4994058;28;20097;-68
2022/07/27 11:25:07;;;;;;;15.93;12.82;;;;;;;;;;4994022;28;20073;-67
2022/07/27 11:27:50;;;;;;;16.63;13.75;;;;;;;;;;4993431;28;20050;-67
2022/07/27 11:30:26;;;;;;;17.88;13.90;;;;;;;;;;4993546;28;20077;-68
2022/07/27 11:32:52;;;;;;;16.75;13.63;;;;;;;;;;4992121;28;20104;-67
2022/07/27 11:35:18;;;;;;;19.10;13.63;;;;;;;;;;4993723;28;20033;-68
2022/07/27 11:37:57;;;;;;;16.35;13.63;;;;;;;;;;4995465;28;20027;-64
2022/07/27 11:40:23;;;;;;;16.40;13.55;;;;;;;;;;4995571;28;20026;-64
2022/07/27 11:42:49;;;;;;;19.58;13.85;;;;;;;;;;4994318;28;20036;-61
2022/07/27 11:45:38;;;;;;;16.02;13.48;;;;;;;;;;4993745;28;20128;-64
2022/07/27 11:48:09;;;;;;;18.23;13.60;;;;;;;;;;4992646;28;20029;-65
2022/07/27 11:50:35;;;;;;;17.15;13.70;;;;;;;;;;4994146;28;20019;-63
2022/07/27 11:53:01;;;;;;;17.90;13.82;;;;;;;;;;4993958;28;20030;-64
2022/07/27 11:55:27;;;;;;;16.85;14.27;;;;;;;;;;4993770;28;20037;-63
2022/07/27 11:58:01;;;;;;;17.40;13.98;;;;;;;;;;4993673;28;20105;-64
2022/07/27 12:00:39;;;;;;;19.92;14.75;;;;;;;;;;4994369;28;20060;-65
2022/07/27 12:03:05;;;;;;;18.48;13.70;;;;;;;;;;4993765;28;20034;-62
2022/07/27 12:05:31;;;;;;;16.42;13.48;;;;;;;;;;4994261;28;20076;-64
2022/07/27 12:07:57;;;;;;;18.83;13.80;;;;;;;;;;5005660;28;20096;-65
2022/07/27 12:10:23;;;;;;;17.48;13.27;;;;;;;;;;4993526;28;20054;-64
2022/07/27 12:12:49;;;;;;;18.20;13.15;;;;;;;;;;4998392;28;20034;-64
2022/07/27 12:15:16;;;;;;;21.40;13.93;;;;;;;;;;4993185;28;20483;-60
2022/07/27 12:17:42;;;;;;;19.33;13.77;;;;;;;;;;4992999;28;20068;-63
2022/07/27 12:20:09;;;;;;;16.75;13.27;;;;;;;;;;4993309;28;20027;-63
2022/07/27 12:22:35;;;;;;;16.83;13.00;;;;;;;;;;4997965;28;20109;-65
2022/07/27 12:25:06;;;;;;;17.27;12.88;;;;;;;;;;5013013;28;20029;-65
2022/07/27 12:27:32;;;;;;;16.00;12.68;;;;;;;;;;5011506;28;20065;-62
2022/07/27 12:30:00;;;;;;;18.27;13.35;;;;;;;;;;5012903;28;20022;-64
2022/07/27 12:32:27;;;;;;;17.13;13.60;;;;;;;;;;5012920;28;20022;-63
2022/07/27 12:34:53;;;;;;;17.45;14.05;;;;;;;;;;5012421;28;20363;-63
2022/07/27 12:37:20;;;;;;;17.77;13.90;;;;;;;;;;5012050;28;20026;-66
2022/07/27 12:39:46;;;;;;;20.52;15.73;;;;;;;;;;5012415;28;20026;-65
2022/07/27 12:42:13;;;;;;;18.33;14.10;;;;;;;;;;5011205;28;20026;-64
2022/07/27 12:44:40;;;;;;;17.75;14.20;;;;;;;;;;5012344;28;20026;-63
2022/07/27 12:50:19;;;;;;;18.95;15.57;;;;;;;;;;5011961;28;20260;-64
2022/07/27 12:52:50;;;;;;;20.17;14.15;;;;;;;;;;5011740;28;20034;-64
2022/07/27 12:55:16;;;;;;;17.88;14.52;;;;;;;;;;5011875;28;20125;-65
2022/07/27 12:57:43;;;;;;;20.05;14.25;;;;;;;;;;5010999;28;20057;-65
2022/07/27 13:00:11;;;;;;;17.27;14.00;;;;;;;;;;5010618;28;20029;-65
2022/07/27 13:02:37;;;;;;;24.95;21.80;;;;;;;;;;5012265;28;20025;-65
2022/07/27 13:05:07;;;;;;;18.88;14.40;;;;;;;;;;5012144;28;20415;-65
2022/07/27 13:07:34;;;;;;;17.15;14.02;;;;;;;;;;5011376;28;20112;-64
2022/07/27 13:10:00;;;;;;;18.02;14.10;;;;;;;;;;5011872;28;20026;-64
2022/07/27 13:12:27;;;;;;;19.08;14.02;;;;;;;;;;5010655;28;20025;-63
2022/07/27 13:14:53;;;;;;;18.23;14.95;;;;;;;;;;5011501;28;20026;-64
2022/07/27 13:17:19;;;;;;;17.80;14.35;;;;;;;;;;5011841;28;20030;-65
2022/07/27 13:19:45;;;;;;;19.83;14.20;;;;;;;;;;5011885;28;20026;-64
2022/07/27 13:22:11;;;;;;;17.77;13.77;;;;;;;;;;5011866;28;20417;-64
2022/07/27 13:24:37;;;;;;;18.90;13.55;;;;;;;;;;5010710;28;20026;-65
2022/07/27 13:27:03;;;;;;;20.88;13.32;;;;;;;;;;5011591;28;20026;-64
2022/07/27 13:29:29;;;;;;;18.42;13.55;;;;;;;;;;5011488;28;20117;-65
2022/07/27 13:31:55;;;;;;;17.58;12.98;;;;;;;;;;5010146;28;20033;-64
2022/07/27 13:34:22;;;;;;;18.23;13.00;;;;;;;;;;5011923;28;20026;-65
2022/07/27 13:36:48;;;;;;;19.75;14.30;;;;;;;;;;5011145;28;20402;-64
2022/07/27 13:39:14;;;;;;;16.95;13.20;;;;;;;;;;5011715;28;20030;-64
2022/07/27 13:41:40;;;;;;;17.27;13.55;;;;;;;;;;5011593;28;20026;-64
2022/07/27 13:44:07;;;;;;;16.40;13.30;;;;;;;;;;5011434;28;20053;-64
2022/07/27 13:46:33;;;;;;;18.50;13.60;;;;;;;;;;5011456;28;20084;-64
2022/07/27 13:49:00;;;;;;;16.58;13.50;;;;;;;;;;5011456;28;20030;-64
2022/07/27 13:51:26;;;;;;;16.20;13.57;;;;;;;;;;5000365;28;20022;-62
2022/07/27 13:53:52;;;;;;;19.75;15.57;;;;;;;;;;4991857;28;20069;-65
2022/07/27 13:56:18;;;;;;;16.63;13.43;;;;;;;;;;5003326;28;20022;-64
2022/07/27 13:58:44;;;;;;;17.55;13.85;;;;;;;;;;4998382;28;20034;-61
2022/07/27 14:01:11;;;;;;;20.27;16.20;;;;;;;;;;4993236;28;20113;-63
2022/07/27 14:03:38;;;;;;;16.40;13.68;;;;;;;;;;4993083;28;20489;-63
2022/07/27 14:06:04;;;;;;;16.25;13.52;;;;;;;;;;4655955;28;9999799;-63
2022/07/27 14:08:30;;;;;;;15.93;12.82;;;;;;;;;;5008487;28;20038;-61
2022/07/27 14:10:56;;;;;;;17.15;12.85;;;;;;;;;;5011884;28;20301;-64
2022/07/27 14:13:23;;;;;;;16.73;13.00;;;;;;;;;;5012229;28;20026;-63
2022/07/27 14:15:50;;;;;;;16.52;13.00;;;;;;;;;;5012062;28;20042;-63
2022/07/27 14:18:16;;;;;;;19.83;13.60;;;;;;;;;;5002938;28;20053;-63
2022/07/27 14:20:42;;;;;;;17.42;14.32;;;;;;;;;;4992497;28;20402;-64
2022/07/27 14:23:08;;;;;;;26.25;13.75;;;;;;;;;;5002479;28;20083;-64
2022/07/27 14:25:34;;;;;;;15.70;12.90;;;;;;;;;;5010301;28;20105;-63
2022/07/27 14:28:00;;;;;;;19.13;13.70;;;;;;;;;;5009672;28;20030;-63